sensor_id;sensor_type;location;lat;lon;timestamp;temperature;humidity
5461;DHT22;2753;49.196;8.286;2024-03-02T00:00:19;6.30;99.90
5461;DHT22;2753;49.196;8.286;2024-03-02T00:02:49;6.30;99.90
5461;DHT22;2753;49.196;8.286;2024-03-02T00:05:18;6.30;99.90
5461;DHT22;2753;49.196;8.286;2024-03-02T00:07:47;6.20;99.90
5461;DHT22;2753;49.196;8.286;2024-03-02T00:10:16;6.10;99.90
5461;DHT22;2753;49.196;8.286;2024-03-02T00:12:47;6.20;99.90
5461;DHT22;2753;49.196;8.286;2024-03-02T00:15:47;6.20;99.90
5461;DHT22;2753;49.196;8.286;2024-03-02T00:18:16;6.10;99.90
5461;DHT22;2753;49.196;8.286;2024-03-02T00:20:44;6.10;99.90
5461;DHT22;2753;49.196;8.286;2024-03-02T00:23:10;6.10;99.90
5461;DHT22;2753;49.196;8.286;2024-03-02T00:25:42;6.00;99.90
5461;DHT22;2753;49.196;8.286;2024-03-02T00:28:32;5.90;99.90
5461;DHT22;2753;49.196;8.286;2024-03-02T00:31:08;5.90;99.90
5461;DHT22;2753;49.196;8.286;2024-03-02T00:33:45;5.90;99.90
5461;DHT22;2753;49.196;8.286;2024-03-02T00:36:15;6.00;99.90
5461;DHT22;2753;49.196;8.286;2024-03-02T00:38:47;5.90;99.90
5461;DHT22;2753;49.196;8.286;2024-03-02T00:41:30;5.80;99.90
5461;DHT22;2753;49.196;8.286;2024-03-02T00:44:01;5.90;99.90
5461;DHT22;2753;49.196;8.286;2024-03-02T00:46:39;5.90;99.90
5461;DHT22;2753;49.196;8.286;2024-03-02T00:49:23;5.80;99.90
5461;DHT22;2753;49.196;8.286;2024-03-02T00:51:51;5.80;99.90
5461;DHT22;2753;49.196;8.286;2024-03-02T00:54:25;5.80;99.90
5461;DHT22;2753;49.196;8.286;2024-03-02T00:57:00;5.80;99.90
5461;DHT22;2753;49.196;8.286;2024-03-02T00:59:26;5.80;99.90
5461;DHT22;2753;49.196;8.286;2024-03-02T01:01:52;5.80;99.90
5461;DHT22;2753;49.196;8.286;2024-03-02T01:04:17;5.80;99.90
5461;DHT22;2753;49.196;8.286;2024-03-02T01:06:43;5.80;99.90
5461;DHT22;2753;49.196;8.286;2024-03-02T01:09:09;5.70;99.90
5461;DHT22;2753;49.196;8.286;2024-03-02T01:11:35;5.80;99.90
5461;DHT22;2753;49.196;8.286;2024-03-02T01:14:00;5.80;99.90
5461;DHT22;2753;49.196;8.286;2024-03-02T01:16:26;5.70;99.90
5461;DHT22;2753;49.196;8.286;2024-03-02T01:18:51;5.70;99.90
5461;DHT22;2753;49.196;8.286;2024-03-02T01:21:17;5.70;99.90
5461;DHT22;2753;49.196;8.286;2024-03-02T01:23:43;5.70;99.90
5461;DHT22;2753;49.196;8.286;2024-03-02T01:26:09;5.70;99.90
5461;DHT22;2753;49.196;8.286;2024-03-02T01:28:34;5.70;99.90
5461;DHT22;2753;49.196;8.286;2024-03-02T01:31:00;5.70;99.90
5461;DHT22;2753;49.196;8.286;2024-03-02T01:33:27;5.70;99.90
5461;DHT22;2753;49.196;8.286;2024-03-02T01:35:53;5.70;99.90
5461;DHT22;2753;49.196;8.286;2024-03-02T01:38:18;5.60;99.90
5461;DHT22;2753;49.196;8.286;2024-03-02T01:40:48;5.60;99.90
5461;DHT22;2753;49.196;8.286;2024-03-02T01:43:14;5.60;99.90
5461;DHT22;2753;49.196;8.286;2024-03-02T01:45:39;5.60;99.90
5461;DHT22;2753;49.196;8.286;2024-03-02T01:48:06;5.60;99.90
5461;DHT22;2753;49.196;8.286;2024-03-02T01:50:33;5.60;99.90
5461;DHT22;2753;49.196;8.286;2024-03-02T01:52:59;5.50;99.90
5461;DHT22;2753;49.196;8.286;2024-03-02T01:55:25;5.40;99.90
5461;DHT22;2753;49.196;8.286;2024-03-02T01:57:52;5.40;99.90
5461;DHT22;2753;49.196;8.286;2024-03-02T02:00:19;5.30;99.90
5461;DHT22;2753;49.196;8.286;2024-03-02T02:02:48;5.30;99.90
5461;DHT22;2753;49.196;8.286;2024-03-02T02:05:15;5.30;99.90
5461;DHT22;2753;49.196;8.286;2024-03-02T02:07:41;5.30;99.90
5461;DHT22;2753;49.196;8.286;2024-03-02T02:10:08;5.30;99.90
5461;DHT22;2753;49.196;8.286;2024-03-02T02:12:35;5.30;99.90
5461;DHT22;2753;49.196;8.286;2024-03-02T02:15:00;5.30;99.90
5461;DHT22;2753;49.196;8.286;2024-03-02T02:17:26;5.30;99.90
5461;DHT22;2753;49.196;8.286;2024-03-02T02:19:51;5.30;99.90
5461;DHT22;2753;49.196;8.286;2024-03-02T02:22:17;5.30;99.90
5461;DHT22;2753;49.196;8.286;2024-03-02T02:24:43;5.30;99.90
5461;DHT22;2753;49.196;8.286;2024-03-02T02:27:09;5.30;99.90
5461;DHT22;2753;49.196;8.286;2024-03-02T02:29:35;5.30;99.90
5461;DHT22;2753;49.196;8.286;2024-03-02T02:32:01;5.30;99.90
5461;DHT22;2753;49.196;8.286;2024-03-02T02:34:28;5.30;99.90
5461;DHT22;2753;49.196;8.286;2024-03-02T02:39:57;5.10;99.90
5461;DHT22;2753;49.196;8.286;2024-03-02T02:42:23;5.10;99.90
5461;DHT22;2753;49.196;8.286;2024-03-02T02:44:49;5.00;99.90
5461;DHT22;2753;49.196;8.286;2024-03-02T02:47:14;4.80;99.90
5461;DHT22;2753;49.196;8.286;2024-03-02T02:49:40;4.80;99.90
5461;DHT22;2753;49.196;8.286;2024-03-02T02:52:06;4.90;99.90
5461;DHT22;2753;49.196;8.286;2024-03-02T02:54:31;4.90;99.90
5461;DHT22;2753;49.196;8.286;2024-03-02T02:56:57;4.90;99.90
5461;DHT22;2753;49.196;8.286;2024-03-02T02:59:23;5.00;99.90
5461;DHT22;2753;49.196;8.286;2024-03-02T03:01:48;4.90;99.90
5461;DHT22;2753;49.196;8.286;2024-03-02T03:04:16;4.90;99.90
5461;DHT22;2753;49.196;8.286;2024-03-02T03:06:42;4.80;99.90
5461;DHT22;2753;49.196;8.286;2024-03-02T03:09:08;4.80;99.90
5461;DHT22;2753;49.196;8.286;2024-03-02T03:11:36;4.80;99.90
5461;DHT22;2753;49.196;8.286;2024-03-02T03:14:02;4.80;99.90
5461;DHT22;2753;49.196;8.286;2024-03-02T03:16:28;4.80;99.90
5461;DHT22;2753;49.196;8.286;2024-03-02T03:18:54;4.80;99.90
5461;DHT22;2753;49.196;8.286;2024-03-02T03:21:19;4.70;99.90
5461;DHT22;2753;49.196;8.286;2024-03-02T03:23:45;4.70;99.90
5461;DHT22;2753;49.196;8.286;2024-03-02T03:26:11;4.70;99.90
5461;DHT22;2753;49.196;8.286;2024-03-02T03:28:36;4.70;99.90
5461;DHT22;2753;49.196;8.286;2024-03-02T03:31:02;4.70;99.90
5461;DHT22;2753;49.196;8.286;2024-03-02T03:33:28;4.60;99.90
5461;DHT22;2753;49.196;8.286;2024-03-02T03:35:54;4.70;99.90
5461;DHT22;2753;49.196;8.286;2024-03-02T03:38:20;4.70;99.90
5461;DHT22;2753;49.196;8.286;2024-03-02T03:40:45;4.60;99.90
5461;DHT22;2753;49.196;8.286;2024-03-02T03:43:11;4.60;99.90
5461;DHT22;2753;49.196;8.286;2024-03-02T03:45:37;4.60;99.90
5461;DHT22;2753;49.196;8.286;2024-03-02T03:48:03;4.60;99.90
5461;DHT22;2753;49.196;8.286;2024-03-02T03:50:28;4.50;99.90
5461;DHT22;2753;49.196;8.286;2024-03-02T03:52:54;4.60;99.90
5461;DHT22;2753;49.196;8.286;2024-03-02T03:55:19;4.60;99.90
5461;DHT22;2753;49.196;8.286;2024-03-02T03:57:45;4.60;99.90
5461;DHT22;2753;49.196;8.286;2024-03-02T04:00:11;4.60;99.90
5461;DHT22;2753;49.196;8.286;2024-03-02T04:02:37;4.60;99.90
5461;DHT22;2753;49.196;8.286;2024-03-02T04:05:03;4.60;99.90
5461;DHT22;2753;49.196;8.286;2024-03-02T04:07:35;4.60;99.90
5461;DHT22;2753;49.196;8.286;2024-03-02T04:10:11;4.60;99.90
5461;DHT22;2753;49.196;8.286;2024-03-02T04:12:38;4.60;99.90
5461;DHT22;2753;49.196;8.286;2024-03-02T04:15:04;4.50;99.90
5461;DHT22;2753;49.196;8.286;2024-03-02T04:17:32;4.40;99.90
5461;DHT22;2753;49.196;8.286;2024-03-02T04:19:59;4.40;99.90
5461;DHT22;2753;49.196;8.286;2024-03-02T04:22:25;4.30;99.90
5461;DHT22;2753;49.196;8.286;2024-03-02T04:24:51;4.30;99.90
5461;DHT22;2753;49.196;8.286;2024-03-02T04:27:17;4.30;99.90
5461;DHT22;2753;49.196;8.286;2024-03-02T04:29:42;4.30;99.90
5461;DHT22;2753;49.196;8.286;2024-03-02T04:32:08;4.30;99.90
5461;DHT22;2753;49.196;8.286;2024-03-02T04:34:34;4.30;99.90
5461;DHT22;2753;49.196;8.286;2024-03-02T04:36:59;4.40;99.90
5461;DHT22;2753;49.196;8.286;2024-03-02T04:39:25;4.20;99.90
5461;DHT22;2753;49.196;8.286;2024-03-02T04:41:50;4.20;99.90
5461;DHT22;2753;49.196;8.286;2024-03-02T04:44:16;4.20;99.90
5461;DHT22;2753;49.196;8.286;2024-03-02T04:46:42;4.20;99.90
5461;DHT22;2753;49.196;8.286;2024-03-02T04:49:07;4.20;99.90
5461;DHT22;2753;49.196;8.286;2024-03-02T04:51:33;4.20;99.90
5461;DHT22;2753;49.196;8.286;2024-03-02T04:53:59;4.20;99.90
5461;DHT22;2753;49.196;8.286;2024-03-02T04:56:25;4.20;99.90
5461;DHT22;2753;49.196;8.286;2024-03-02T04:58:56;4.20;99.90
5461;DHT22;2753;49.196;8.286;2024-03-02T05:01:22;4.20;99.90
5461;DHT22;2753;49.196;8.286;2024-03-02T05:04:16;4.20;99.90
5461;DHT22;2753;49.196;8.286;2024-03-02T05:06:41;4.10;99.90
5461;DHT22;2753;49.196;8.286;2024-03-02T05:09:08;4.10;99.90
5461;DHT22;2753;49.196;8.286;2024-03-02T05:11:34;4.10;99.90
5461;DHT22;2753;49.196;8.286;2024-03-02T05:14:03;4.00;99.90
5461;DHT22;2753;49.196;8.286;2024-03-02T05:16:28;4.00;99.90
5461;DHT22;2753;49.196;8.286;2024-03-02T05:18:54;4.10;99.90
5461;DHT22;2753;49.196;8.286;2024-03-02T05:21:20;4.00;99.90
5461;DHT22;2753;49.196;8.286;2024-03-02T05:23:45;4.00;99.90
5461;DHT22;2753;49.196;8.286;2024-03-02T05:26:11;4.00;99.90
5461;DHT22;2753;49.196;8.286;2024-03-02T05:28:39;3.90;99.90
5461;DHT22;2753;49.196;8.286;2024-03-02T05:31:05;3.90;99.90
5461;DHT22;2753;49.196;8.286;2024-03-02T05:33:31;3.90;99.90
5461;DHT22;2753;49.196;8.286;2024-03-02T05:35:58;3.90;99.90
5461;DHT22;2753;49.196;8.286;2024-03-02T05:38:24;3.80;99.90
5461;DHT22;2753;49.196;8.286;2024-03-02T05:40:50;3.80;99.90
5461;DHT22;2753;49.196;8.286;2024-03-02T05:43:15;3.80;99.90
5461;DHT22;2753;49.196;8.286;2024-03-02T05:45:41;3.80;99.90
5461;DHT22;2753;49.196;8.286;2024-03-02T05:48:07;3.80;99.90
5461;DHT22;2753;49.196;8.286;2024-03-02T05:50:33;3.80;99.90
5461;DHT22;2753;49.196;8.286;2024-03-02T05:52:59;3.80;99.90
5461;DHT22;2753;49.196;8.286;2024-03-02T05:55:25;3.70;99.90
5461;DHT22;2753;49.196;8.286;2024-03-02T05:57:50;3.70;99.90
5461;DHT22;2753;49.196;8.286;2024-03-02T06:00:45;3.80;99.90
5461;DHT22;2753;49.196;8.286;2024-03-02T06:03:10;3.80;99.90
5461;DHT22;2753;49.196;8.286;2024-03-02T06:05:36;3.80;99.90
5461;DHT22;2753;49.196;8.286;2024-03-02T06:08:02;3.80;99.90
5461;DHT22;2753;49.196;8.286;2024-03-02T06:10:27;3.80;99.90
5461;DHT22;2753;49.196;8.286;2024-03-02T06:12:53;3.70;99.90
5461;DHT22;2753;49.196;8.286;2024-03-02T06:15:19;3.70;99.90
5461;DHT22;2753;49.196;8.286;2024-03-02T06:17:44;3.70;99.90
5461;DHT22;2753;49.196;8.286;2024-03-02T06:20:10;3.70;99.90
5461;DHT22;2753;49.196;8.286;2024-03-02T06:22:37;3.70;99.90
5461;DHT22;2753;49.196;8.286;2024-03-02T06:25:02;3.80;99.90
5461;DHT22;2753;49.196;8.286;2024-03-02T06:27:28;3.80;99.90
5461;DHT22;2753;49.196;8.286;2024-03-02T06:29:57;3.80;99.90
5461;DHT22;2753;49.196;8.286;2024-03-02T06:32:22;3.80;99.90
5461;DHT22;2753;49.196;8.286;2024-03-02T06:34:50;3.80;99.90
5461;DHT22;2753;49.196;8.286;2024-03-02T06:37:16;3.80;99.90
5461;DHT22;2753;49.196;8.286;2024-03-02T06:39:42;3.80;99.90
5461;DHT22;2753;49.196;8.286;2024-03-02T06:42:08;3.90;99.90
5461;DHT22;2753;49.196;8.286;2024-03-02T06:44:34;3.80;99.90
5461;DHT22;2753;49.196;8.286;2024-03-02T06:47:00;3.90;99.90
5461;DHT22;2753;49.196;8.286;2024-03-02T06:49:25;3.80;99.90
5461;DHT22;2753;49.196;8.286;2024-03-02T06:51:51;3.80;99.90
5461;DHT22;2753;49.196;8.286;2024-03-02T06:54:17;3.80;99.90
5461;DHT22;2753;49.196;8.286;2024-03-02T06:56:42;3.80;99.90
5461;DHT22;2753;49.196;8.286;2024-03-02T06:59:08;3.80;99.90
5461;DHT22;2753;49.196;8.286;2024-03-02T07:01:34;3.90;99.90
5461;DHT22;2753;49.196;8.286;2024-03-02T07:04:00;3.90;99.90
5461;DHT22;2753;49.196;8.286;2024-03-02T07:06:25;3.90;99.90
5461;DHT22;2753;49.196;8.286;2024-03-02T07:08:51;3.90;99.90
5461;DHT22;2753;49.196;8.286;2024-03-02T07:11:16;3.90;99.90
5461;DHT22;2753;49.196;8.286;2024-03-02T07:13:42;4.00;99.90
5461;DHT22;2753;49.196;8.286;2024-03-02T07:16:08;4.00;99.90
5461;DHT22;2753;49.196;8.286;2024-03-02T07:18:36;4.10;99.90
5461;DHT22;2753;49.196;8.286;2024-03-02T07:21:07;4.10;99.90
5461;DHT22;2753;49.196;8.286;2024-03-02T07:23:34;4.10;99.90
5461;DHT22;2753;49.196;8.286;2024-03-02T07:25:59;4.10;99.90
5461;DHT22;2753;49.196;8.286;2024-03-02T07:28:27;4.10;99.90
5461;DHT22;2753;49.196;8.286;2024-03-02T07:31:03;4.10;99.90
5461;DHT22;2753;49.196;8.286;2024-03-02T07:33:30;4.20;99.90
5461;DHT22;2753;49.196;8.286;2024-03-02T07:35:56;4.30;99.90
5461;DHT22;2753;49.196;8.286;2024-03-02T07:38:23;4.30;99.90
5461;DHT22;2753;49.196;8.286;2024-03-02T07:40:49;4.40;99.90
5461;DHT22;2753;49.196;8.286;2024-03-02T07:43:21;4.50;99.90
5461;DHT22;2753;49.196;8.286;2024-03-02T07:45:47;4.60;99.90
5461;DHT22;2753;49.196;8.286;2024-03-02T07:48:14;4.80;99.90
5461;DHT22;2753;49.196;8.286;2024-03-02T07:50:40;4.90;99.90
5461;DHT22;2753;49.196;8.286;2024-03-02T07:53:09;5.10;99.90
5461;DHT22;2753;49.196;8.286;2024-03-02T07:55:35;5.10;99.90
5461;DHT22;2753;49.196;8.286;2024-03-02T07:58:01;5.10;99.90
5461;DHT22;2753;49.196;8.286;2024-03-02T08:00:27;5.20;99.90
5461;DHT22;2753;49.196;8.286;2024-03-02T08:02:55;5.30;99.90
5461;DHT22;2753;49.196;8.286;2024-03-02T08:05:21;5.40;99.90
5461;DHT22;2753;49.196;8.286;2024-03-02T08:07:47;5.60;99.90
5461;DHT22;2753;49.196;8.286;2024-03-02T08:10:13;5.70;99.90
5461;DHT22;2753;49.196;8.286;2024-03-02T08:12:39;5.80;99.90
5461;DHT22;2753;49.196;8.286;2024-03-02T08:15:05;6.00;99.90
5461;DHT22;2753;49.196;8.286;2024-03-02T08:17:31;6.00;99.90
5461;DHT22;2753;49.196;8.286;2024-03-02T08:19:57;6.10;99.90
5461;DHT22;2753;49.196;8.286;2024-03-02T08:22:27;6.30;99.90
5461;DHT22;2753;49.196;8.286;2024-03-02T08:24:53;6.40;99.90
5461;DHT22;2753;49.196;8.286;2024-03-02T08:27:19;6.50;99.90
5461;DHT22;2753;49.196;8.286;2024-03-02T08:29:44;6.60;99.90
5461;DHT22;2753;49.196;8.286;2024-03-02T08:32:10;6.90;99.90
5461;DHT22;2753;49.196;8.286;2024-03-02T08:34:36;6.90;99.90
5461;DHT22;2753;49.196;8.286;2024-03-02T08:37:04;6.90;99.90
5461;DHT22;2753;49.196;8.286;2024-03-02T08:39:30;7.10;99.90
5461;DHT22;2753;49.196;8.286;2024-03-02T08:41:56;7.20;99.90
5461;DHT22;2753;49.196;8.286;2024-03-02T08:44:22;7.20;99.90
5461;DHT22;2753;49.196;8.286;2024-03-02T08:46:47;7.30;99.90
5461;DHT22;2753;49.196;8.286;2024-03-02T08:49:13;7.40;99.90
5461;DHT22;2753;49.196;8.286;2024-03-02T08:51:39;7.60;99.90
5461;DHT22;2753;49.196;8.286;2024-03-02T08:54:05;7.60;99.90
5461;DHT22;2753;49.196;8.286;2024-03-02T08:56:31;7.70;99.90
5461;DHT22;2753;49.196;8.286;2024-03-02T08:58:57;7.70;99.90
5461;DHT22;2753;49.196;8.286;2024-03-02T09:01:22;7.70;99.90
5461;DHT22;2753;49.196;8.286;2024-03-02T09:03:48;7.70;99.90
5461;DHT22;2753;49.196;8.286;2024-03-02T09:06:17;7.90;99.90
5461;DHT22;2753;49.196;8.286;2024-03-02T09:08:43;8.00;99.90
5461;DHT22;2753;49.196;8.286;2024-03-02T09:11:10;8.20;99.90
5461;DHT22;2753;49.196;8.286;2024-03-02T09:13:38;8.20;99.90
5461;DHT22;2753;49.196;8.286;2024-03-02T09:16:04;8.30;99.90
5461;DHT22;2753;49.196;8.286;2024-03-02T09:18:31;8.40;99.90
5461;DHT22;2753;49.196;8.286;2024-03-02T09:20:56;8.50;99.90
5461;DHT22;2753;49.196;8.286;2024-03-02T09:23:22;8.60;99.90
5461;DHT22;2753;49.196;8.286;2024-03-02T09:25:47;8.70;99.90
5461;DHT22;2753;49.196;8.286;2024-03-02T09:28:15;8.90;99.90
5461;DHT22;2753;49.196;8.286;2024-03-02T09:30:41;9.10;99.90
5461;DHT22;2753;49.196;8.286;2024-03-02T09:33:07;9.20;99.90
5461;DHT22;2753;49.196;8.286;2024-03-02T09:35:32;9.30;99.90
5461;DHT22;2753;49.196;8.286;2024-03-02T09:37:58;9.40;99.90
5461;DHT22;2753;49.196;8.286;2024-03-02T09:40:24;9.50;99.90
5461;DHT22;2753;49.196;8.286;2024-03-02T09:42:51;9.70;99.90
5461;DHT22;2753;49.196;8.286;2024-03-02T09:45:23;9.90;99.90
5461;DHT22;2753;49.196;8.286;2024-03-02T09:47:49;10.10;99.30
5461;DHT22;2753;49.196;8.286;2024-03-02T09:50:15;10.30;99.40
5461;DHT22;2753;49.196;8.286;2024-03-02T09:52:42;10.60;99.30
5461;DHT22;2753;49.196;8.286;2024-03-02T09:55:08;10.80;99.30
5461;DHT22;2753;49.196;8.286;2024-03-02T09:57:34;10.80;99.40
5461;DHT22;2753;49.196;8.286;2024-03-02T10:00:00;10.80;99.30
5461;DHT22;2753;49.196;8.286;2024-03-02T10:02:26;10.90;99.10
5461;DHT22;2753;49.196;8.286;2024-03-02T10:04:51;10.90;98.00
5461;DHT22;2753;49.196;8.286;2024-03-02T10:07:18;11.00;98.10
5461;DHT22;2753;49.196;8.286;2024-03-02T10:09:46;11.30;98.10
5461;DHT22;2753;49.196;8.286;2024-03-02T10:12:13;11.50;98.20
5461;DHT22;2753;49.196;8.286;2024-03-02T10:14:39;11.60;98.10
5461;DHT22;2753;49.196;8.286;2024-03-02T10:17:11;11.80;98.60
5461;DHT22;2753;49.196;8.286;2024-03-02T10:19:38;11.90;98.40
5461;DHT22;2753;49.196;8.286;2024-03-02T10:22:06;12.00;97.50
5461;DHT22;2753;49.196;8.286;2024-03-02T10:24:42;12.30;98.00
5461;DHT22;2753;49.196;8.286;2024-03-02T10:27:23;12.40;97.80
5461;DHT22;2753;49.196;8.286;2024-03-02T10:29:49;12.50;97.80
5461;DHT22;2753;49.196;8.286;2024-03-02T10:32:15;12.70;97.30
5461;DHT22;2753;49.196;8.286;2024-03-02T10:34:44;12.80;96.90
5461;DHT22;2753;49.196;8.286;2024-03-02T10:37:11;12.90;97.20
5461;DHT22;2753;49.196;8.286;2024-03-02T10:39:38;12.90;96.90
5461;DHT22;2753;49.196;8.286;2024-03-02T10:42:07;13.00;97.20
5461;DHT22;2753;49.196;8.286;2024-03-02T10:44:33;13.10;96.60
5461;DHT22;2753;49.196;8.286;2024-03-02T10:47:03;13.40;97.00
5461;DHT22;2753;49.196;8.286;2024-03-02T10:49:31;13.80;96.80
5461;DHT22;2753;49.196;8.286;2024-03-02T10:52:00;13.70;95.60
5461;DHT22;2753;49.196;8.286;2024-03-02T10:54:30;14.00;96.30
5461;DHT22;2753;49.196;8.286;2024-03-02T10:57:01;14.30;96.40
5461;DHT22;2753;49.196;8.286;2024-03-02T10:59:36;14.30;95.20
5461;DHT22;2753;49.196;8.286;2024-03-02T11:02:03;14.50;95.90
5461;DHT22;2753;49.196;8.286;2024-03-02T11:04:30;14.40;94.70
5461;DHT22;2753;49.196;8.286;2024-03-02T11:07:08;14.40;95.20
5461;DHT22;2753;49.196;8.286;2024-03-02T11:09:38;14.70;94.80
5461;DHT22;2753;49.196;8.286;2024-03-02T11:12:29;14.80;94.80
5461;DHT22;2753;49.196;8.286;2024-03-02T11:14:56;15.00;94.00
5461;DHT22;2753;49.196;8.286;2024-03-02T11:17:23;15.10;93.00
5461;DHT22;2753;49.196;8.286;2024-03-02T11:19:49;15.20;92.80
5461;DHT22;2753;49.196;8.286;2024-03-02T11:22:15;15.20;92.70
5461;DHT22;2753;49.196;8.286;2024-03-02T11:24:51;15.70;93.00
5461;DHT22;2753;49.196;8.286;2024-03-02T11:33:00;15.40;91.70
5461;DHT22;2753;49.196;8.286;2024-03-02T11:35:28;15.40;92.30
5461;DHT22;2753;49.196;8.286;2024-03-02T11:37:55;15.50;92.70
5461;DHT22;2753;49.196;8.286;2024-03-02T11:40:28;15.60;91.70
5461;DHT22;2753;49.196;8.286;2024-03-02T11:42:54;15.50;92.70
5461;DHT22;2753;49.196;8.286;2024-03-02T11:45:24;15.50;92.50
5461;DHT22;2753;49.196;8.286;2024-03-02T11:47:57;15.40;92.10
5461;DHT22;2753;49.196;8.286;2024-03-02T11:53:09;15.50;93.10
5461;DHT22;2753;49.196;8.286;2024-03-02T11:55:36;15.50;91.80
5461;DHT22;2753;49.196;8.286;2024-03-02T11:58:05;15.70;92.60
5461;DHT22;2753;49.196;8.286;2024-03-02T12:00:31;16.10;92.00
5461;DHT22;2753;49.196;8.286;2024-03-02T12:03:04;16.20;90.90
5461;DHT22;2753;49.196;8.286;2024-03-02T12:05:30;16.30;89.60
5461;DHT22;2753;49.196;8.286;2024-03-02T12:08:01;16.40;90.70
5461;DHT22;2753;49.196;8.286;2024-03-02T12:10:27;17.10;90.70
5461;DHT22;2753;49.196;8.286;2024-03-02T12:13:04;17.30;90.60
5461;DHT22;2753;49.196;8.286;2024-03-02T12:15:34;17.90;89.00
5461;DHT22;2753;49.196;8.286;2024-03-02T12:18:01;18.30;86.10
5461;DHT22;2753;49.196;8.286;2024-03-02T12:20:32;18.70;85.50
5461;DHT22;2753;49.196;8.286;2024-03-02T12:23:00;18.60;83.70
5461;DHT22;2753;49.196;8.286;2024-03-02T12:25:26;18.40;82.60
5461;DHT22;2753;49.196;8.286;2024-03-02T12:27:57;18.50;84.90
5461;DHT22;2753;49.196;8.286;2024-03-02T12:30:23;18.70;83.00
5461;DHT22;2753;49.196;8.286;2024-03-02T12:32:49;18.80;86.70
5461;DHT22;2753;49.196;8.286;2024-03-02T12:35:15;19.00;87.40
5461;DHT22;2753;49.196;8.286;2024-03-02T12:37:48;19.30;85.50
5461;DHT22;2753;49.196;8.286;2024-03-02T12:40:16;19.60;86.00
5461;DHT22;2753;49.196;8.286;2024-03-02T12:42:46;19.80;83.40
5461;DHT22;2753;49.196;8.286;2024-03-02T12:45:13;18.70;81.20
5461;DHT22;2753;49.196;8.286;2024-03-02T12:47:40;19.30;85.30
5461;DHT22;2753;49.196;8.286;2024-03-02T12:50:07;19.50;85.80
5461;DHT22;2753;49.196;8.286;2024-03-02T12:52:33;19.80;83.20
5461;DHT22;2753;49.196;8.286;2024-03-02T12:55:04;19.70;79.40
5461;DHT22;2753;49.196;8.286;2024-03-02T12:57:31;20.20;79.50
5461;DHT22;2753;49.196;8.286;2024-03-02T12:59:58;19.90;79.60
5461;DHT22;2753;49.196;8.286;2024-03-02T13:02:28;20.00;78.70
5461;DHT22;2753;49.196;8.286;2024-03-02T13:04:54;19.80;79.80
5461;DHT22;2753;49.196;8.286;2024-03-02T13:07:20;20.00;80.80
5461;DHT22;2753;49.196;8.286;2024-03-02T13:09:49;20.10;78.40
5461;DHT22;2753;49.196;8.286;2024-03-02T13:12:19;20.10;75.90
5461;DHT22;2753;49.196;8.286;2024-03-02T13:14:47;19.50;78.10
5461;DHT22;2753;49.196;8.286;2024-03-02T13:17:13;19.60;79.80
5461;DHT22;2753;49.196;8.286;2024-03-02T13:19:50;19.50;77.60
5461;DHT22;2753;49.196;8.286;2024-03-02T13:22:20;19.70;77.20
5461;DHT22;2753;49.196;8.286;2024-03-02T13:24:47;19.70;79.10
5461;DHT22;2753;49.196;8.286;2024-03-02T13:27:12;19.80;79.60
5461;DHT22;2753;49.196;8.286;2024-03-02T13:29:38;19.70;77.70
5461;DHT22;2753;49.196;8.286;2024-03-02T13:32:04;19.80;78.80
5461;DHT22;2753;49.196;8.286;2024-03-02T13:34:30;19.70;80.10
5461;DHT22;2753;49.196;8.286;2024-03-02T13:36:55;19.30;79.50
5461;DHT22;2753;49.196;8.286;2024-03-02T13:39:21;19.00;78.70
5461;DHT22;2753;49.196;8.286;2024-03-02T13:41:47;18.80;79.00
5461;DHT22;2753;49.196;8.286;2024-03-02T13:44:19;18.30;78.60
5461;DHT22;2753;49.196;8.286;2024-03-02T13:46:44;18.40;80.40
5461;DHT22;2753;49.196;8.286;2024-03-02T13:49:11;18.40;80.80
5461;DHT22;2753;49.196;8.286;2024-03-02T13:51:40;18.40;78.60
5461;DHT22;2753;49.196;8.286;2024-03-02T13:54:06;18.70;80.10
5461;DHT22;2753;49.196;8.286;2024-03-02T13:56:31;18.70;80.40
5461;DHT22;2753;49.196;8.286;2024-03-02T13:58:58;19.30;81.80
5461;DHT22;2753;49.196;8.286;2024-03-02T14:01:24;19.40;78.80
5461;DHT22;2753;49.196;8.286;2024-03-02T14:03:51;19.30;79.00
5461;DHT22;2753;49.196;8.286;2024-03-02T14:06:20;19.10;80.00
5461;DHT22;2753;49.196;8.286;2024-03-02T14:08:46;18.70;79.80
5461;DHT22;2753;49.196;8.286;2024-03-02T14:11:14;18.50;80.20
5461;DHT22;2753;49.196;8.286;2024-03-02T14:13:41;18.20;78.40
5461;DHT22;2753;49.196;8.286;2024-03-02T14:16:07;18.40;80.60
5461;DHT22;2753;49.196;8.286;2024-03-02T14:18:34;18.50;80.40
5461;DHT22;2753;49.196;8.286;2024-03-02T14:20:59;18.60;81.20
5461;DHT22;2753;49.196;8.286;2024-03-02T14:23:25;18.40;80.80
5461;DHT22;2753;49.196;8.286;2024-03-02T14:25:51;18.30;81.20
5461;DHT22;2753;49.196;8.286;2024-03-02T14:28:17;18.30;81.90
5461;DHT22;2753;49.196;8.286;2024-03-02T14:30:43;17.80;81.10
5461;DHT22;2753;49.196;8.286;2024-03-02T14:33:12;17.60;80.90
5461;DHT22;2753;49.196;8.286;2024-03-02T14:35:39;17.40;82.70
5461;DHT22;2753;49.196;8.286;2024-03-02T14:38:04;17.50;82.00
5461;DHT22;2753;49.196;8.286;2024-03-02T14:40:30;17.50;83.50
5461;DHT22;2753;49.196;8.286;2024-03-02T14:42:56;17.30;82.60
5461;DHT22;2753;49.196;8.286;2024-03-02T14:45:21;17.20;82.40
5461;DHT22;2753;49.196;8.286;2024-03-02T14:47:49;17.20;83.40
5461;DHT22;2753;49.196;8.286;2024-03-02T14:50:15;17.00;83.50
5461;DHT22;2753;49.196;8.286;2024-03-02T14:52:42;17.00;83.60
5461;DHT22;2753;49.196;8.286;2024-03-02T14:55:07;16.90;84.50
5461;DHT22;2753;49.196;8.286;2024-03-02T14:57:33;16.60;84.80
5461;DHT22;2753;49.196;8.286;2024-03-02T14:59:59;16.70;85.50
5461;DHT22;2753;49.196;8.286;2024-03-02T15:02:25;16.60;86.10
5461;DHT22;2753;49.196;8.286;2024-03-02T15:04:52;16.40;86.10
5461;DHT22;2753;49.196;8.286;2024-03-02T15:07:18;16.40;87.20
5461;DHT22;2753;49.196;8.286;2024-03-02T15:09:43;16.30;87.80
5461;DHT22;2753;49.196;8.286;2024-03-02T15:12:10;16.30;88.10
5461;DHT22;2753;49.196;8.286;2024-03-02T15:14:38;16.20;88.20
5461;DHT22;2753;49.196;8.286;2024-03-02T15:17:04;16.20;89.00
5461;DHT22;2753;49.196;8.286;2024-03-02T15:19:30;16.10;88.70
5461;DHT22;2753;49.196;8.286;2024-03-02T15:21:56;16.00;89.20
5461;DHT22;2753;49.196;8.286;2024-03-02T15:24:21;16.10;89.70
5461;DHT22;2753;49.196;8.286;2024-03-02T15:26:47;16.10;89.70
5461;DHT22;2753;49.196;8.286;2024-03-02T15:29:14;16.20;90.10
5461;DHT22;2753;49.196;8.286;2024-03-02T15:31:42;16.10;89.80
5461;DHT22;2753;49.196;8.286;2024-03-02T15:34:08;16.10;90.20
5461;DHT22;2753;49.196;8.286;2024-03-02T15:36:34;16.00;90.20
5461;DHT22;2753;49.196;8.286;2024-03-02T15:39:00;16.00;90.40
5461;DHT22;2753;49.196;8.286;2024-03-02T15:41:27;16.00;90.50
5461;DHT22;2753;49.196;8.286;2024-03-02T15:43:53;16.00;90.60
5461;DHT22;2753;49.196;8.286;2024-03-02T15:46:22;15.90;90.70
5461;DHT22;2753;49.196;8.286;2024-03-02T15:48:51;15.90;90.80
5461;DHT22;2753;49.196;8.286;2024-03-02T15:51:20;15.80;90.90
5461;DHT22;2753;49.196;8.286;2024-03-02T16:34:12;15.00;92.30
5461;DHT22;2753;49.196;8.286;2024-03-02T16:36:38;15.00;92.40
5461;DHT22;2753;49.196;8.286;2024-03-02T16:39:05;14.90;92.40
5461;DHT22;2753;49.196;8.286;2024-03-02T16:41:31;14.90;92.50
5461;DHT22;2753;49.196;8.286;2024-03-02T16:43:58;14.90;92.60
5461;DHT22;2753;49.196;8.286;2024-03-02T16:46:24;14.80;92.70
5461;DHT22;2753;49.196;8.286;2024-03-02T16:48:49;14.80;92.70
5461;DHT22;2753;49.196;8.286;2024-03-02T16:51:15;14.70;92.70
5461;DHT22;2753;49.196;8.286;2024-03-02T16:53:41;14.70;92.80
5461;DHT22;2753;49.196;8.286;2024-03-02T16:56:06;14.70;92.80
5461;DHT22;2753;49.196;8.286;2024-03-02T16:58:32;14.60;92.90
5461;DHT22;2753;49.196;8.286;2024-03-02T17:00:58;14.60;92.90
5461;DHT22;2753;49.196;8.286;2024-03-02T17:03:23;14.50;92.80